Time;durP1;ratioP1;P1;durP2;ratioP2;P2;SDS_P1;SDS_P2;PMS_P1;PMS_P2;Temp;Humidity;BMP_temperature;BMP_pressure;BME280_temperature;BME280_humidity;BME280_pressure;Samples;Min_cycle;Max_cycle;Signal;HPM_P1;HPM_P2
2022/03/02 00:01:29;;;;;;;21.52;11.98;;;;;;;;;;4988645;28;20049;-80
2022/03/02 00:03:55;;;;;;;20.75;11.57;;;;;;;;;;4989063;28;20508;-79
2022/03/02 00:06:20;;;;;;;18.48;11.98;;;;;;;;;;4964842;28;20044;-80
2022/03/02 00:08:45;;;;;;;23.13;12.57;;;;;;;;;;4981647;28;20057;-79
2022/03/02 00:11:11;;;;;;;20.42;12.23;;;;;;;;;;4991089;28;20117;-79
2022/03/02 00:13:37;;;;;;;21.83;11.80;;;;;;;;;;4982342;28;20058;-80
2022/03/02 00:16:03;;;;;;;22.35;12.65;;;;;;;;;;4990607;28;20442;-81
2022/03/02 00:18:29;;;;;;;21.95;12.32;;;;;;;;;;4989144;28;20033;-80
2022/03/02 00:20:54;;;;;;;21.55;12.95;;;;;;;;;;4990595;28;20034;-80
2022/03/02 00:23:19;;;;;;;20.92;12.60;;;;;;;;;;4987797;28;20042;-80
2022/03/02 00:25:45;;;;;;;21.73;11.77;;;;;;;;;;4990198;28;20059;-80
2022/03/02 00:28:10;;;;;;;22.73;12.23;;;;;;;;;;4991655;28;20037;-81
2022/03/02 00:30:35;;;;;;;19.58;11.65;;;;;;;;;;4984901;28;20050;-80
2022/03/02 00:33:01;;;;;;;22.33;11.88;;;;;;;;;;4960664;28;20076;-80
2022/03/02 00:35:29;;;;;;;20.50;11.93;;;;;;;;;;4981159;28;20034;-80
2022/03/02 00:37:54;;;;;;;20.20;11.60;;;;;;;;;;4972478;28;20633;-80
2022/03/02 00:40:20;;;;;;;20.80;12.48;;;;;;;;;;4987055;28;20153;-80
2022/03/02 00:42:45;;;;;;;21.08;12.10;;;;;;;;;;4975855;28;20041;-80
2022/03/02 00:45:14;;;;;;;20.85;12.38;;;;;;;;;;4991459;28;20547;-80
2022/03/02 00:47:40;;;;;;;22.95;12.57;;;;;;;;;;4981396;28;20100;-79
2022/03/02 00:50:06;;;;;;;22.58;13.52;;;;;;;;;;4971340;28;20034;-80
2022/03/02 00:52:32;;;;;;;20.73;12.68;;;;;;;;;;4985460;28;20040;-80
2022/03/02 00:54:57;;;;;;;22.38;12.57;;;;;;;;;;4969684;28;20037;-80
2022/03/02 00:57:22;;;;;;;23.85;13.57;;;;;;;;;;4973036;28;20539;-79
2022/03/02 00:59:48;;;;;;;20.30;13.00;;;;;;;;;;4968967;28;20089;-82
2022/03/02 01:02:13;;;;;;;21.13;13.50;;;;;;;;;;4967374;28;20044;-79
2022/03/02 01:04:39;;;;;;;23.27;13.00;;;;;;;;;;4966605;28;20057;-80
2022/03/02 01:07:04;;;;;;;21.85;13.02;;;;;;;;;;4964238;28;20030;-80
2022/03/02 01:09:30;;;;;;;22.23;13.05;;;;;;;;;;4990389;28;20033;-79
2022/03/02 01:11:55;;;;;;;22.77;13.93;;;;;;;;;;4970279;28;20069;-80
2022/03/02 01:14:22;;;;;;;22.77;13.77;;;;;;;;;;4978656;28;20065;-80
2022/03/02 01:16:47;;;;;;;23.13;14.48;;;;;;;;;;4972914;28;20050;-80
2022/03/02 01:19:13;;;;;;;21.85;13.02;;;;;;;;;;4990494;28;20103;-80
2022/03/02 01:21:38;;;;;;;23.27;13.88;;;;;;;;;;4978435;28;22072;-81
2022/03/02 01:24:04;;;;;;;23.30;13.15;;;;;;;;;;4989374;28;20125;-80
2022/03/02 01:26:29;;;;;;;23.13;13.52;;;;;;;;;;4988225;28;20030;-80
2022/03/02 01:28:55;;;;;;;22.65;13.43;;;;;;;;;;4989716;28;20045;-80
2022/03/02 01:31:22;;;;;;;21.88;13.65;;;;;;;;;;4972371;28;20505;-81
2022/03/02 01:33:48;;;;;;;21.33;12.87;;;;;;;;;;4980336;28;20058;-80
2022/03/02 01:36:14;;;;;;;22.25;14.02;;;;;;;;;;4988914;28;20033;-80
2022/03/02 01:38:39;;;;;;;23.58;14.73;;;;;;;;;;4989367;28;20038;-80
2022/03/02 01:41:05;;;;;;;21.92;12.90;;;;;;;;;;4989033;28;20064;-80
2022/03/02 01:43:30;;;;;;;22.35;13.85;;;;;;;;;;4989458;28;20151;-80
2022/03/02 01:45:56;;;;;;;23.48;13.93;;;;;;;;;;4988725;28;20392;-81
2022/03/02 01:48:21;;;;;;;21.10;12.98;;;;;;;;;;4963319;28;20615;-80
2022/03/02 01:50:46;;;;;;;23.90;13.43;;;;;;;;;;4990543;28;20117;-80
2022/03/02 01:53:12;;;;;;;24.00;14.10;;;;;;;;;;4972936;28;20030;-80
2022/03/02 01:55:37;;;;;;;23.95;13.63;;;;;;;;;;4963086;28;20038;-80
2022/03/02 01:58:03;;;;;;;21.33;13.43;;;;;;;;;;4988165;28;20119;-80
2022/03/02 02:00:29;;;;;;;25.58;13.13;;;;;;;;;;4987481;28;20030;-81
2022/03/02 02:02:55;;;;;;;25.58;14.38;;;;;;;;;;5914005;23;20219;-81
2022/03/02 02:05:21;;;;;;;23.00;13.82;;;;;;;;;;4953209;28;20079;-81
2022/03/02 02:07:47;;;;;;;20.67;13.13;;;;;;;;;;4939775;28;20038;-80
2022/03/02 02:10:13;;;;;;;22.20;13.68;;;;;;;;;;4943682;28;20031;-79
2022/03/02 02:12:38;;;;;;;20.75;13.15;;;;;;;;;;4923510;28;20039;-79
2022/03/02 02:15:05;;;;;;;23.17;13.40;;;;;;;;;;4937623;28;20058;-80
2022/03/02 02:17:31;;;;;;;23.13;13.53;;;;;;;;;;4952857;28;20638;-80
2022/03/02 02:19:56;;;;;;;24.90;13.73;;;;;;;;;;4929792;28;20066;-78
2022/03/02 02:22:21;;;;;;;21.63;12.95;;;;;;;;;;4952870;28;20700;-80
2022/03/02 02:24:47;;;;;;;24.02;14.00;;;;;;;;;;4923315;28;20658;-79
2022/03/02 02:27:16;;;;;;;24.85;13.65;;;;;;;;;;4929366;28;20371;-79
2022/03/02 02:29:42;;;;;;;24.27;13.45;;;;;;;;;;4928456;28;20498;-80
2022/03/02 02:32:08;;;;;;;21.05;13.25;;;;;;;;;;4936245;28;20039;-80
2022/03/02 02:34:34;;;;;;;25.52;14.15;;;;;;;;;;4927951;28;20049;-80
2022/03/02 02:37:00;;;;;;;24.00;14.50;;;;;;;;;;4938717;28;20039;-80
2022/03/02 02:39:26;;;;;;;22.48;13.35;;;;;;;;;;4942744;28;20465;-81
2022/03/02 02:41:52;;;;;;;23.20;13.35;;;;;;;;;;4944337;28;20154;-80
2022/03/02 02:44:17;;;;;;;23.25;13.50;;;;;;;;;;4929410;28;20150;-80
2022/03/02 02:46:46;;;;;;;23.23;13.23;;;;;;;;;;4928306;28;20409;-80
2022/03/02 02:49:12;;;;;;;25.23;14.02;;;;;;;;;;4945560;28;20027;-81
2022/03/02 02:51:37;;;;;;;26.65;14.23;;;;;;;;;;4937811;28;20410;-81
2022/03/02 02:54:03;;;;;;;23.08;13.63;;;;;;;;;;4940962;28;20027;-82
2022/03/02 02:56:29;;;;;;;21.90;13.48;;;;;;;;;;4939381;28;20031;-80
2022/03/02 02:58:54;;;;;;;22.17;13.52;;;;;;;;;;4921473;28;20490;-80
2022/03/02 03:01:19;;;;;;;27.02;14.23;;;;;;;;;;4937598;28;20054;-80
2022/03/02 03:03:44;;;;;;;22.25;12.82;;;;;;;;;;4945160;28;20046;-81
2022/03/02 03:06:10;;;;;;;22.38;13.35;;;;;;;;;;4906838;29;20078;-81
2022/03/02 03:08:36;;;;;;;23.38;14.43;;;;;;;;;;4939183;29;20050;-80
2022/03/02 03:11:03;;;;;;;22.98;14.80;;;;;;;;;;4938777;29;20391;-81
2022/03/02 03:13:29;;;;;;;;;;;;;;;;;;4924044;29;20047;-81
2022/03/02 03:15:54;;;;;;;24.53;13.63;;;;;;;;;;4938273;29;19923;-81
2022/03/02 03:18:19;;;;;;;22.73;13.82;;;;;;;;;;4922884;29;20283;-81
2022/03/02 03:20:45;;;;;;;23.35;13.80;;;;;;;;;;4922898;29;20044;-80
2022/03/02 03:23:11;;;;;;;22.92;14.07;;;;;;;;;;4906859;29;20095;-81
2022/03/02 03:25:37;;;;;;;23.33;13.88;;;;;;;;;;4906303;29;20514;-79
2022/03/02 03:28:05;;;;;;;23.42;13.85;;;;;;;;;;4907814;29;20059;-80
2022/03/02 03:30:31;;;;;;;22.25;13.93;;;;;;;;;;4925864;29;20032;-78
2022/03/02 03:32:57;;;;;;;24.25;13.45;;;;;;;;;;4912623;29;20039;-80
2022/03/02 03:35:24;;;;;;;23.98;14.07;;;;;;;;;;4912920;29;20040;-81
2022/03/02 03:37:50;;;;;;;23.70;14.25;;;;;;;;;;4927995;29;20032;-79
2022/03/02 03:40:17;;;;;;;23.33;13.38;;;;;;;;;;4928203;29;20039;-80
2022/03/02 03:42:43;;;;;;;22.85;14.32;;;;;;;;;;4927847;29;20058;-80
2022/03/02 03:45:09;;;;;;;22.30;13.38;;;;;;;;;;4909784;29;21542;-79
2022/03/02 03:47:34;;;;;;;25.02;14.75;;;;;;;;;;4911782;29;20195;-79
2022/03/02 03:50:03;;;;;;;21.25;13.35;;;;;;;;;;4927550;29;20135;-79
2022/03/02 03:52:29;;;;;;;21.40;13.30;;;;;;;;;;4927008;29;20494;-79
2022/03/02 03:54:54;;;;;;;23.42;13.95;;;;;;;;;;4911862;29;20132;-78
2022/03/02 03:57:20;;;;;;;23.55;14.25;;;;;;;;;;4927344;29;20023;-79
2022/03/02 03:59:45;;;;;;;22.70;13.57;;;;;;;;;;4912238;29;20035;-79
2022/03/02 04:02:10;;;;;;;24.58;14.50;;;;;;;;;;4910966;29;20419;-80
2022/03/02 04:04:36;;;;;;;25.27;14.40;;;;;;;;;;4927248;29;20075;-80
2022/03/02 04:07:01;;;;;;;24.60;15.13;;;;;;;;;;4915837;29;20099;-80
2022/03/02 04:09:27;;;;;;;25.30;14.95;;;;;;;;;;4930099;29;20350;-80
2022/03/02 04:11:52;;;;;;;28.50;15.52;;;;;;;;;;4916498;29;20578;-80
2022/03/02 04:14:17;;;;;;;26.52;15.45;;;;;;;;;;4915501;29;20036;-80
2022/03/02 04:16:43;;;;;;;24.58;15.65;;;;;;;;;;4914673;29;20523;-79
2022/03/02 04:19:08;;;;;;;26.55;15.13;;;;;;;;;;4915639;29;20043;-80
2022/03/02 04:21:34;;;;;;;25.42;15.40;;;;;;;;;;4916667;29;20263;-80
2022/03/02 04:24:00;;;;;;;28.27;15.60;;;;;;;;;;4929870;29;20099;-79
2022/03/02 04:26:25;;;;;;;26.20;15.30;;;;;;;;;;4915155;29;20091;-79
2022/03/02 04:28:50;;;;;;;26.50;15.45;;;;;;;;;;4928980;29;20073;-80
2022/03/02 04:31:16;;;;;;;27.50;15.60;;;;;;;;;;4910368;29;20407;-82
2022/03/02 04:33:41;;;;;;;27.10;15.63;;;;;;;;;;4926042;29;20036;-81
2022/03/02 04:36:07;;;;;;;26.85;16.25;;;;;;;;;;4925603;29;20039;-82
2022/03/02 04:38:33;;;;;;;29.60;16.13;;;;;;;;;;4926151;29;20051;-81
2022/03/02 04:40:58;;;;;;;28.95;15.43;;;;;;;;;;4924825;29;20039;-82
2022/03/02 04:43:26;;;;;;;29.98;15.68;;;;;;;;;;4904562;29;20046;-80
2022/03/02 04:45:51;;;;;;;27.45;16.05;;;;;;;;;;4908983;29;20972;-81
2022/03/02 04:48:17;;;;;;;26.77;16.40;;;;;;;;;;4927206;29;20075;-81
2022/03/02 04:50:42;;;;;;;25.77;16.42;;;;;;;;;;4925370;29;20118;-80
2022/03/02 04:53:08;;;;;;;27.40;16.75;;;;;;;;;;4911296;29;20351;-81
2022/03/02 04:55:33;;;;;;;26.80;16.83;;;;;;;;;;4925383;29;20047;-81
2022/03/02 04:58:00;;;;;;;26.27;15.88;;;;;;;;;;4925861;29;20171;-81
2022/03/02 05:00:34;;;;;;;27.58;16.35;;;;;;;;;;4925092;29;20446;-81
2022/03/02 05:03:01;;;;;;;26.15;15.60;;;;;;;;;;4926643;29;20730;-80
2022/03/02 05:05:28;;;;;;;25.80;15.98;;;;;;;;;;4911069;29;20039;-80
2022/03/02 05:07:54;;;;;;;27.58;16.33;;;;;;;;;;4943235;29;20031;-80
2022/03/02 05:10:21;;;;;;;27.38;16.60;;;;;;;;;;4944455;29;20042;-81
2022/03/02 05:12:47;;;;;;;26.30;15.93;;;;;;;;;;4945863;29;20436;-80
2022/03/02 05:15:13;;;;;;;28.65;15.65;;;;;;;;;;4896719;29;20071;-80
2022/03/02 05:17:40;;;;;;;30.60;17.48;;;;;;;;;;4913227;29;20043;-83
2022/03/02 05:20:07;;;;;;;29.10;15.52;;;;;;;;;;4910507;29;20105;-82
2022/03/02 05:22:32;;;;;;;29.17;16.90;;;;;;;;;;4912519;29;20505;-80
2022/03/02 05:24:58;;;;;;;26.42;16.25;;;;;;;;;;4927755;29;20122;-79
2022/03/02 05:27:24;;;;;;;30.17;16.77;;;;;;;;;;4915671;29;20062;-79
2022/03/02 05:29:49;;;;;;;32.97;17.02;;;;;;;;;;4928067;29;20102;-82
2022/03/02 05:32:15;;;;;;;28.50;16.55;;;;;;;;;;4927898;29;20043;-79
2022/03/02 05:34:40;;;;;;;28.67;16.98;;;;;;;;;;4913586;29;20035;-79
2022/03/02 05:37:05;;;;;;;29.35;16.65;;;;;;;;;;4928591;29;20035;-81
2022/03/02 05:39:31;;;;;;;31.27;17.38;;;;;;;;;;4929442;29;20090;-80
2022/03/02 05:41:56;;;;;;;28.25;17.58;;;;;;;;;;4913544;29;20043;-81
2022/03/02 05:44:22;;;;;;;28.38;18.15;;;;;;;;;;4911521;29;20398;-80
2022/03/02 05:46:48;;;;;;;28.30;16.95;;;;;;;;;;4928470;29;20127;-81
2022/03/02 05:49:14;;;;;;;28.80;17.02;;;;;;;;;;4911917;29;20163;-81
2022/03/02 05:51:39;;;;;;;31.05;17.65;;;;;;;;;;4910853;29;20043;-82
2022/03/02 05:54:05;;;;;;;27.13;16.58;;;;;;;;;;4928294;29;20028;-80
2022/03/02 05:56:32;;;;;;;30.65;17.25;;;;;;;;;;4927494;29;20043;-81
2022/03/02 05:58:58;;;;;;;30.35;18.13;;;;;;;;;;4912968;29;20101;-80
2022/03/02 06:01:23;;;;;;;32.45;17.98;;;;;;;;;;4917777;29;20542;-81
2022/03/02 06:03:49;;;;;;;26.35;17.27;;;;;;;;;;4943618;28;20039;-82
2022/03/02 06:06:15;;;;;;;30.70;17.65;;;;;;;;;;4912095;29;20410;-82
2022/03/02 06:08:40;;;;;;;32.92;18.50;;;;;;;;;;4943534;29;20039;-81
2022/03/02 06:11:06;;;;;;;31.20;17.60;;;;;;;;;;4913201;29;20039;-81
2022/03/02 06:13:32;;;;;;;31.77;17.73;;;;;;;;;;4943854;29;20479;-81
2022/03/02 06:15:58;;;;;;;30.80;17.92;;;;;;;;;;4917212;29;20050;-82
2022/03/02 06:18:25;;;;;;;29.38;17.80;;;;;;;;;;4927710;29;20042;-80
2022/03/02 06:20:52;;;;;;;31.40;18.33;;;;;;;;;;4926672;29;20430;-80
2022/03/02 06:23:21;;;;;;;30.42;18.27;;;;;;;;;;4944153;29;20032;-79
2022/03/02 06:25:46;;;;;;;30.92;18.27;;;;;;;;;;4941886;29;20506;-78
2022/03/02 06:28:12;;;;;;;33.47;18.52;;;;;;;;;;4911158;29;20145;-79
2022/03/02 06:30:37;;;;;;;31.23;18.90;;;;;;;;;;4914735;29;20450;-78
2022/03/02 06:33:03;;;;;;;31.23;17.65;;;;;;;;;;4943061;29;20442;-79
2022/03/02 06:35:28;;;;;;;34.63;18.67;;;;;;;;;;4910981;29;20046;-79
2022/03/02 06:37:54;;;;;;;32.45;18.95;;;;;;;;;;4943186;29;20098;-79
2022/03/02 06:40:19;;;;;;;31.13;19.92;;;;;;;;;;4911677;29;20091;-79
2022/03/02 06:43:02;;;;;;;29.63;17.92;;;;;;;;;;4927232;29;20039;-79
2022/03/02 06:45:55;;;;;;;35.45;19.83;;;;;;;;;;4942263;29;20047;-78
2022/03/02 06:48:32;;;;;;;36.20;18.85;;;;;;;;;;4942652;29;20074;-79
2022/03/02 06:51:00;;;;;;;35.30;20.47;;;;;;;;;;4906497;29;20031;-79
2022/03/02 06:53:36;;;;;;;36.67;19.83;;;;;;;;;;4927250;29;20031;-79
2022/03/02 06:56:06;;;;;;;37.30;19.45;;;;;;;;;;4925854;29;20047;-79
2022/03/02 06:58:43;;;;;;;37.70;19.45;;;;;;;;;;4910189;29;20123;-79
2022/03/02 07:01:10;;;;;;;37.17;20.55;;;;;;;;;;4902765;29;20502;-79
2022/03/02 07:03:42;;;;;;;35.58;20.27;;;;;;;;;;4925413;29;20055;-78
2022/03/02 07:06:07;;;;;;;39.45;20.80;;;;;;;;;;4925098;29;20043;-79
2022/03/02 07:08:33;;;;;;;35.58;20.92;;;;;;;;;;4926132;29;20050;-79
2022/03/02 07:10:59;;;;;;;38.42;20.98;;;;;;;;;;4925413;29;20031;-81
2022/03/02 07:13:27;;;;;;;33.22;20.33;;;;;;;;;;4925994;29;20027;-79
2022/03/02 07:15:52;;;;;;;34.38;20.25;;;;;;;;;;4910284;29;20039;-81
2022/03/02 07:18:18;;;;;;;32.83;19.98;;;;;;;;;;4927205;29;20035;-80
2022/03/02 07:20:46;;;;;;;39.28;21.60;;;;;;;;;;4941686;29;20031;-79
2022/03/02 07:23:15;;;;;;;40.30;20.40;;;;;;;;;;4944587;29;20042;-79
2022/03/02 07:25:42;;;;;;;37.03;20.80;;;;;;;;;;4911829;29;20043;-80
2022/03/02 07:28:09;;;;;;;35.38;20.52;;;;;;;;;;4928667;29;20490;-80
2022/03/02 07:30:35;;;;;;;37.78;21.08;;;;;;;;;;4925658;29;20039;-80
2022/03/02 07:33:01;;;;;;;35.78;20.15;;;;;;;;;;4927087;29;20038;-79
2022/03/02 07:35:29;;;;;;;34.40;20.65;;;;;;;;;;4925045;29;20047;-81
2022/03/02 07:37:56;;;;;;;33.88;20.33;;;;;;;;;;4909854;29;20040;-78
2022/03/02 07:40:21;;;;;;;31.13;20.00;;;;;;;;;;4927223;29;20098;-77
2022/03/02 07:42:47;;;;;;;33.03;20.70;;;;;;;;;;4931209;29;20051;-80
2022/03/02 07:45:12;;;;;;;37.47;20.35;;;;;;;;;;4913888;29;20063;-80
2022/03/02 07:47:38;;;;;;;35.97;20.67;;;;;;;;;;4947184;29;20146;-79
2022/03/02 07:50:07;;;;;;;34.35;20.48;;;;;;;;;;4946378;29;20660;-81
2022/03/02 07:52:36;;;;;;;34.20;19.23;;;;;;;;;;4915779;29;20039;-80
2022/03/02 07:55:09;;;;;;;36.63;20.00;;;;;;;;;;4929528;29;20035;-82
2022/03/02 07:57:35;;;;;;;37.22;19.90;;;;;;;;;;4930728;29;20047;-79
2022/03/02 08:00:01;;;;;;;35.08;20.83;;;;;;;;;;4914618;29;20524;-79
2022/03/02 08:02:30;;;;;;;34.08;19.85;;;;;;;;;;4915260;29;20037;-80
2022/03/02 08:04:56;;;;;;;35.42;20.00;;;;;;;;;;4944469;28;20399;-79
2022/03/02 08:07:22;;;;;;;36.28;19.65;;;;;;;;;;4929621;29;20032;-79
2022/03/02 08:09:48;;;;;;;38.08;20.40;;;;;;;;;;4946244;29;20390;-79
2022/03/02 08:12:13;;;;;;;36.25;19.63;;;;;;;;;;4917307;29;20035;-79
2022/03/02 08:14:40;;;;;;;36.33;20.30;;;;;;;;;;4929563;29;20090;-79
2022/03/02 08:17:05;;;;;;;33.28;19.23;;;;;;;;;;4919138;29;20039;-79
2022/03/02 08:19:31;;;;;;;32.60;18.52;;;;;;;;;;4913198;29;20094;-79
2022/03/02 08:22:04;;;;;;;31.40;18.60;;;;;;;;;;4928696;29;20450;-80
2022/03/02 08:24:31;;;;;;;34.40;19.48;;;;;;;;;;4928941;29;20036;-81
2022/03/02 08:27:01;;;;;;;33.85;20.20;;;;;;;;;;4929507;29;20038;-79
2022/03/02 08:29:30;;;;;;;34.28;19.40;;;;;;;;;;4905231;29;20130;-80
2022/03/02 08:32:00;;;;;;;30.38;18.15;;;;;;;;;;4913962;29;20414;-79
2022/03/02 08:34:29;;;;;;;33.00;20.05;;;;;;;;;;4913928;29;20102;-79
2022/03/02 08:36:56;;;;;;;32.33;19.08;;;;;;;;;;4909354;29;20049;-79
2022/03/02 08:39:22;;;;;;;31.08;18.90;;;;;;;;;;4929427;29;20035;-81
2022/03/02 08:41:48;;;;;;;32.42;19.42;;;;;;;;;;4930315;29;20050;-80
2022/03/02 08:44:14;;;;;;;32.88;20.10;;;;;;;;;;4914156;29;20089;-79
2022/03/02 08:46:41;;;;;;;31.17;19.05;;;;;;;;;;4928529;29;20043;-79
2022/03/02 08:49:07;;;;;;;32.08;19.10;;;;;;;;;;4929071;29;20538;-77
2022/03/02 08:51:39;;;;;;;34.17;19.00;;;;;;;;;;4932090;28;20048;-81
2022/03/02 08:54:04;;;;;;;30.30;18.80;;;;;;;;;;4913716;29;20473;-79
2022/03/02 08:56:35;;;;;;;30.52;18.00;;;;;;;;;;4928967;29;20035;-79
2022/03/02 08:59:01;;;;;;;28.77;17.65;;;;;;;;;;4912912;29;20619;-79
2022/03/02 09:01:27;;;;;;;26.73;18.40;;;;;;;;;;4914671;29;20019;-79
2022/03/02 09:03:53;;;;;;;27.10;17.38;;;;;;;;;;4912952;29;20051;-80
2022/03/02 09:06:20;;;;;;;28.67;17.65;;;;;;;;;;4945215;29;20047;-79
2022/03/02 09:08:46;;;;;;;28.13;17.30;;;;;;;;;;4909983;29;20411;-80
2022/03/02 09:11:11;;;;;;;29.70;18.52;;;;;;;;;;4930092;29;20027;-81
2022/03/02 09:13:38;;;;;;;27.88;17.50;;;;;;;;;;4945492;29;20455;-80
2022/03/02 09:16:07;;;;;;;25.30;17.10;;;;;;;;;;4912970;29;20031;-81
2022/03/02 09:18:33;;;;;;;26.33;17.30;;;;;;;;;;4913905;29;20221;-79
2022/03/02 09:21:04;;;;;;;24.38;16.38;;;;;;;;;;4927793;29;20055;-79
2022/03/02 09:23:33;;;;;;;25.02;16.90;;;;;;;;;;4929212;29;20035;-80
2022/03/02 09:26:03;;;;;;;29.10;16.33;;;;;;;;;;4913716;29;20094;-81
2022/03/02 09:28:32;;;;;;;26.77;16.70;;;;;;;;;;4928569;29;20786;-83
2022/03/02 09:31:02;;;;;;;24.15;15.75;;;;;;;;;;4911834;29;20497;-80
2022/03/02 09:33:28;;;;;;;24.83;15.65;;;;;;;;;;4913560;29;20110;-80
2022/03/02 09:35:54;;;;;;;33.53;16.92;;;;;;;;;;4912422;29;20032;-81
2022/03/02 09:38:20;;;;;;;27.00;16.70;;;;;;;;;;4913523;29;20434;-80
2022/03/02 09:40:49;;;;;;;28.40;16.50;;;;;;;;;;4931911;29;20524;-79
2022/03/02 09:43:19;;;;;;;24.30;15.60;;;;;;;;;;4929254;29;20067;-82
2022/03/02 09:45:44;;;;;;;24.15;14.43;;;;;;;;;;4911922;29;20035;-78
2022/03/02 09:48:18;;;;;;;24.15;15.70;;;;;;;;;;4913302;29;20039;-78
2022/03/02 09:50:44;;;;;;;22.92;15.68;;;;;;;;;;4911751;29;20053;-80
2022/03/02 09:53:13;;;;;;;24.05;16.48;;;;;;;;;;4928633;29;20035;-80
2022/03/02 09:55:42;;;;;;;24.95;16.10;;;;;;;;;;4911052;29;20043;-79
2022/03/02 09:58:07;;;;;;;23.52;14.82;;;;;;;;;;4928400;29;20039;-81
2022/03/02 10:00:33;;;;;;;24.65;15.57;;;;;;;;;;4926211;29;20046;-81
2022/03/02 10:03:00;;;;;;;23.88;14.32;;;;;;;;;;4927737;28;20126;-80
2022/03/02 10:05:28;;;;;;;24.85;14.75;;;;;;;;;;4929210;29;20847;-81
2022/03/02 10:07:57;;;;;;;23.10;15.27;;;;;;;;;;4904233;29;20122;-81
2022/03/02 10:10:23;;;;;;;26.20;15.63;;;;;;;;;;4942881;29;20031;-82
2022/03/02 10:12:59;;;;;;;25.80;16.05;;;;;;;;;;4943813;29;20101;-80
2022/03/02 10:15:26;;;;;;;25.83;16.65;;;;;;;;;;4910927;29;20039;-80
2022/03/02 10:17:52;;;;;;;26.08;16.05;;;;;;;;;;4927817;29;20471;-82
2022/03/02 10:20:23;;;;;;;25.48;16.08;;;;;;;;;;4911584;29;20845;-80
2022/03/02 10:23:10;;;;;;;25.08;15.57;;;;;;;;;;4906932;29;20035;-81
2022/03/02 10:26:01;;;;;;;25.10;15.95;;;;;;;;;;4926444;29;20040;-80
2022/03/02 10:28:28;;;;;;;25.05;15.02;;;;;;;;;;4944704;29;20039;-80
2022/03/02 10:31:03;;;;;;;24.48;14.57;;;;;;;;;;4926461;29;20578;-79
2022/03/02 10:33:35;;;;;;;23.55;15.32;;;;;;;;;;4911194;29;20039;-79
2022/03/02 10:36:04;;;;;;;22.35;15.13;;;;;;;;;;4942326;29;20506;-80
2022/03/02 10:38:38;;;;;;;27.38;15.48;;;;;;;;;;4926976;29;20543;-81
2022/03/02 10:41:07;;;;;;;22.65;14.65;;;;;;;;;;4943265;29;20179;-80
2022/03/02 10:43:56;;;;;;;23.75;15.05;;;;;;;;;;4911742;29;20039;-79
2022/03/02 10:46:23;;;;;;;24.13;15.55;;;;;;;;;;4926348;29;20037;-80
2022/03/02 10:49:13;;;;;;;24.85;14.65;;;;;;;;;;4928047;29;20031;-80
2022/03/02 10:51:39;;;;;;;23.67;14.35;;;;;;;;;;4929343;29;20510;-80
2022/03/02 10:54:06;;;;;;;24.08;14.15;;;;;;;;;;4942875;29;20053;-82
2022/03/02 10:56:39;;;;;;;22.73;14.57;;;;;;;;;;4906485;29;20119;-81
2022/03/02 10:59:07;;;;;;;20.27;13.07;;;;;;;;;;4928475;29;20895;-81
2022/03/02 11:01:33;;;;;;;18.88;13.50;;;;;;;;;;4927153;29;20035;-80
2022/03/02 11:03:58;;;;;;;19.30;13.25;;;;;;;;;;4926788;29;20043;-81
2022/03/02 11:06:24;;;;;;;19.45;12.00;;;;;;;;;;4911444;29;20050;-80
2022/03/02 11:08:50;;;;;;;19.75;13.07;;;;;;;;;;4928395;29;20031;-80
2022/03/02 11:11:19;;;;;;;18.92;13.32;;;;;;;;;;4927215;29;20028;-82
2022/03/02 11:13:45;;;;;;;18.48;11.95;;;;;;;;;;4926543;29;20042;-82
2022/03/02 11:16:18;;;;;;;17.60;13.10;;;;;;;;;;4925315;29;20043;-82
2022/03/02 11:18:52;;;;;;;18.10;12.48;;;;;;;;;;4925145;29;20419;-82
2022/03/02 11:21:39;;;;;;;19.45;12.00;;;;;;;;;;4941844;29;20031;-82
2022/03/02 11:24:05;;;;;;;19.33;13.52;;;;;;;;;;4926252;29;20379;-82
2022/03/02 11:26:34;;;;;;;17.75;12.63;;;;;;;;;;4910483;29;20102;-82
2022/03/02 11:29:02;;;;;;;17.98;12.25;;;;;;;;;;4927217;29;20042;-81
2022/03/02 11:31:30;;;;;;;18.13;12.57;;;;;;;;;;4926813;29;20510;-80
2022/03/02 11:34:09;;;;;;;19.38;12.55;;;;;;;;;;4910983;29;20134;-80
2022/03/02 11:36:36;;;;;;;19.30;12.88;;;;;;;;;;4941925;29;20086;-81
2022/03/02 11:39:02;;;;;;;19.90;12.60;;;;;;;;;;4911683;29;20031;-81
2022/03/02 11:41:36;;;;;;;19.23;12.98;;;;;;;;;;4941654;29;20134;-81
2022/03/02 11:44:03;;;;;;;18.90;12.20;;;;;;;;;;4942447;29;20094;-80
2022/03/02 11:46:29;;;;;;;17.27;11.93;;;;;;;;;;4910348;29;20517;-83
2022/03/02 11:48:55;;;;;;;17.80;11.73;;;;;;;;;;4911946;29;21047;-82
2022/03/02 11:51:23;;;;;;;16.60;11.23;;;;;;;;;;4926388;29;20039;-81
2022/03/02 11:53:52;;;;;;;15.77;11.50;;;;;;;;;;4910851;29;20118;-81
2022/03/02 11:56:20;;;;;;;17.52;12.00;;;;;;;;;;4931070;29;20043;-80
2022/03/02 11:59:04;;;;;;;17.50;12.55;;;;;;;;;;4909656;29;20712;-82
2022/03/02 12:01:53;;;;;;;17.50;12.60;;;;;;;;;;4925669;29;20179;-80
2022/03/02 12:04:18;;;;;;;19.55;12.57;;;;;;;;;;4926017;29;20063;-80
2022/03/02 12:06:51;;;;;;;19.52;12.52;;;;;;;;;;4910191;29;20039;-82
2022/03/02 12:09:38;;;;;;;15.50;11.77;;;;;;;;;;4925112;29;20066;-81
2022/03/02 12:12:10;;;;;;;15.68;11.27;;;;;;;;;;4913485;29;20116;-81
2022/03/02 12:14:42;;;;;;;18.55;12.18;;;;;;;;;;4943573;29;20035;-80
2022/03/02 12:17:22;;;;;;;17.08;12.80;;;;;;;;;;4941303;29;20181;-82
2022/03/02 12:19:53;;;;;;;16.92;12.40;;;;;;;;;;4925425;29;20031;-83
2022/03/02 12:22:19;;;;;;;15.95;12.13;;;;;;;;;;4912622;29;20066;-80
2022/03/02 12:24:48;;;;;;;19.20;13.07;;;;;;;;;;4910949;29;20122;-80
2022/03/02 12:27:15;;;;;;;16.42;12.02;;;;;;;;;;4927297;29;20499;-80
2022/03/02 12:29:41;;;;;;;18.58;12.48;;;;;;;;;;4929045;29;20462;-81
2022/03/02 12:32:17;;;;;;;16.80;12.40;;;;;;;;;;4907413;29;20506;-80
2022/03/02 12:34:48;;;;;;;20.25;12.98;;;;;;;;;;4913493;29;20592;-82
2022/03/02 12:37:15;;;;;;;18.52;12.25;;;;;;;;;;4944665;29;20130;-82
2022/03/02 12:39:41;;;;;;;15.98;11.88;;;;;;;;;;4912907;29;20491;-80
2022/03/02 12:42:08;;;;;;;16.80;11.85;;;;;;;;;;4906394;29;20492;-81
2022/03/02 12:44:47;;;;;;;19.48;11.90;;;;;;;;;;4928355;29;20043;-82
2022/03/02 12:47:18;;;;;;;17.73;11.82;;;;;;;;;;4929296;29;20499;-81
2022/03/02 12:49:44;;;;;;;18.80;13.13;;;;;;;;;;4929496;29;20035;-81
2022/03/02 12:52:11;;;;;;;18.88;13.02;;;;;;;;;;4913453;29;20402;-83
2022/03/02 12:54:38;;;;;;;19.30;12.90;;;;;;;;;;4913223;29;20502;-80
2022/03/02 12:57:08;;;;;;;23.23;13.27;;;;;;;;;;4913698;29;20039;-81
2022/03/02 12:59:33;;;;;;;19.13;12.32;;;;;;;;;;4916221;29;20048;-82
2022/03/02 13:02:04;;;;;;;20.08;12.88;;;;;;;;;;4928748;29;20035;-82
2022/03/02 13:04:56;;;;;;;20.98;12.50;;;;;;;;;;4913417;29;20038;-80
2022/03/02 13:07:39;;;;;;;19.05;12.02;;;;;;;;;;4928294;29;20039;-81
2022/03/02 13:10:07;;;;;;;19.23;12.63;;;;;;;;;;4928740;29;20058;-81
2022/03/02 13:12:44;;;;;;;21.45;13.35;;;;;;;;;;4907724;29;20035;-81
2022/03/02 13:15:18;;;;;;;19.58;12.82;;;;;;;;;;4927018;29;20043;-80
2022/03/02 13:17:45;;;;;;;18.58;12.10;;;;;;;;;;4931630;29;20038;-81
2022/03/02 13:20:20;;;;;;;22.00;12.40;;;;;;;;;;4932218;29;20063;-81
2022/03/02 13:22:50;;;;;;;23.58;13.20;;;;;;;;;;4912651;29;20046;-82
2022/03/02 13:25:16;;;;;;;19.63;12.60;;;;;;;;;;4927580;29;20618;-82
2022/03/02 13:28:13;;;;;;;19.27;12.45;;;;;;;;;;4896847;29;20122;-82
2022/03/02 13:30:39;;;;;;;19.27;12.43;;;;;;;;;;4885142;29;20047;-82
2022/03/02 13:33:05;;;;;;;20.67;12.20;;;;;;;;;;4914181;29;20031;-81
2022/03/02 13:35:33;;;;;;;19.33;12.05;;;;;;;;;;4912292;29;20063;-83
2022/03/02 13:38:10;;;;;;;18.40;12.00;;;;;;;;;;4911944;29;20039;-82
2022/03/02 13:40:37;;;;;;;20.13;12.65;;;;;;;;;;4927353;29;20045;-81
2022/03/02 13:43:05;;;;;;;;;;;;;;;;;;4912825;29;20039;-81
2022/03/02 13:45:35;;;;;;;19.55;11.60;;;;;;;;;;4943813;29;19926;-81
2022/03/02 13:48:23;;;;;;;17.30;11.32;;;;;;;;;;4914761;29;20102;-81
2022/03/02 13:51:03;;;;;;;17.63;11.60;;;;;;;;;;4937661;29;20041;-81
2022/03/02 13:53:44;;;;;;;16.92;11.55;;;;;;;;;;4927297;29;20546;-83
2022/03/02 13:56:13;;;;;;;19.02;11.10;;;;;;;;;;4927607;29;20059;-83
2022/03/02 13:58:41;;;;;;;19.25;11.05;;;;;;;;;;4928209;29;20289;-83
2022/03/02 14:01:27;;;;;;;20.65;10.93;;;;;;;;;;4926897;29;20059;-83
2022/03/02 14:04:02;;;;;;;17.37;10.53;;;;;;;;;;4910882;29;20047;-85
2022/03/02 14:06:28;;;;;;;14.13;9.57;;;;;;;;;;4927913;29;20065;-83
2022/03/02 14:08:54;;;;;;;15.57;9.88;;;;;;;;;;4923772;28;20051;-81
2022/03/02 14:11:45;;;;;;;17.98;10.52;;;;;;;;;;4911885;29;20160;-82
2022/03/02 14:14:16;;;;;;;18.75;10.60;;;;;;;;;;4927081;29;20058;-82
2022/03/02 14:16:51;;;;;;;18.65;11.07;;;;;;;;;;4930464;29;20395;-81
2022/03/02 14:19:16;;;;;;;17.35;11.00;;;;;;;;;;4943102;29;20502;-80
2022/03/02 14:21:52;;;;;;;19.17;11.10;;;;;;;;;;4927126;29;20093;-81
2022/03/02 14:24:18;;;;;;;16.77;11.18;;;;;;;;;;4911935;29;20035;-81